Time;durP1;ratioP1;P1;durP2;ratioP2;P2;SDS_P1;SDS_P2;PMS_P1;PMS_P2;Temp;Humidity;BMP_temperature;BMP_pressure;BME280_temperature;BME280_humidity;BME280_pressure;Samples;Min_cycle;Max_cycle;Signal;HPM_P1;HPM_P2
2022/01/19 00:01:28;;;;;;;13.65;9.15;;;2.00;99.90;;;;;;5030265;28;20116;-60
2022/01/19 00:03:53;;;;;;;15.13;8.52;;;2.00;99.90;;;;;;5028753;28;20167;-59
2022/01/19 00:06:19;;;;;;;16.15;9.10;;;2.00;99.90;;;;;;5028510;28;20029;-59
2022/01/19 00:08:45;;;;;;;19.05;8.95;;;2.00;99.90;;;;;;5029247;28;20045;-59
2022/01/19 00:11:11;;;;;;;14.05;8.82;;;2.10;99.90;;;;;;5029062;28;20030;-59
2022/01/19 00:13:36;;;;;;;13.23;8.73;;;2.10;99.90;;;;;;5030645;28;20041;-60
2022/01/19 00:16:02;;;;;;;12.30;8.30;;;2.20;99.90;;;;;;5029216;28;20047;-58
2022/01/19 00:18:28;;;;;;;13.55;8.13;;;2.20;99.90;;;;;;5028419;28;20040;-59
2022/01/19 00:20:54;;;;;;;16.98;8.50;;;2.20;99.90;;;;;;5028795;28;20046;-59
2022/01/19 00:23:21;;;;;;;13.55;8.13;;;2.20;99.90;;;;;;5028062;28;20474;-60
2022/01/19 00:25:48;;;;;;;11.18;7.68;;;2.20;99.90;;;;;;5027893;28;20033;-59
2022/01/19 00:28:15;;;;;;;19.38;8.07;;;2.20;99.90;;;;;;5029325;28;20063;-58
2022/01/19 00:30:41;;;;;;;12.52;7.57;;;2.20;99.90;;;;;;5029542;28;20480;-59
2022/01/19 00:33:07;;;;;;;16.10;8.52;;;2.20;99.90;;;;;;5012098;28;20057;-59
2022/01/19 00:35:35;;;;;;;12.30;8.95;;;2.20;99.90;;;;;;5028521;28;20499;-59
2022/01/19 00:38:01;;;;;;;14.23;7.38;;;2.30;99.90;;;;;;5027680;28;20037;-58
2022/01/19 00:40:27;;;;;;;15.35;7.95;;;2.30;99.90;;;;;;5023366;28;20040;-59
2022/01/19 00:42:53;;;;;;;16.05;7.07;;;2.30;99.90;;;;;;5037978;28;20055;-60
2022/01/19 00:45:19;;;;;;;15.02;7.32;;;2.30;99.90;;;;;;5035666;28;20291;-60
2022/01/19 00:47:48;;;;;;;13.60;7.97;;;2.30;99.90;;;;;;5028218;28;20065;-58
2022/01/19 00:50:18;;;;;;;11.77;7.25;;;2.30;99.90;;;;;;5025167;28;20086;-58
2022/01/19 00:52:44;;;;;;;16.08;6.93;;;2.20;99.90;;;;;;5025806;28;20034;-58
2022/01/19 00:55:13;;;;;;;12.95;6.32;;;2.20;99.90;;;;;;5028912;28;20241;-58
2022/01/19 00:57:40;;;;;;;13.25;7.40;;;2.20;99.90;;;;;;5027733;28;20411;-59
2022/01/19 01:00:09;;;;;;;10.05;6.80;;;2.20;99.90;;;;;;5026250;28;20029;-59
2022/01/19 01:02:35;;;;;;;9.65;6.68;;;2.20;99.90;;;;;;5035577;28;20029;-59
2022/01/19 01:05:01;;;;;;;11.13;6.88;;;2.20;99.90;;;;;;5032711;28;20498;-59
2022/01/19 01:07:27;;;;;;;10.77;6.05;;;2.30;99.90;;;;;;5036686;28;20060;-58
2022/01/19 01:09:54;;;;;;;11.43;6.45;;;2.30;99.90;;;;;;5033458;28;20495;-59
2022/01/19 01:12:22;;;;;;;10.43;6.43;;;2.30;99.90;;;;;;5032702;28;20041;-59
2022/01/19 01:20:37;;;;;;;8.40;4.85;;;2.60;99.90;;;;;;5009692;28;20088;-58
2022/01/19 01:23:04;;;;;;;10.45;5.03;;;2.70;99.90;;;;;;5027617;28;20041;-58
2022/01/19 01:25:30;;;;;;;6.93;5.15;;;2.80;99.90;;;;;;5033020;28;20116;-59
2022/01/19 01:27:56;;;;;;;7.78;4.25;;;2.90;99.90;;;;;;5032354;28;20100;-58
2022/01/19 01:30:22;;;;;;;7.78;4.03;;;2.90;99.90;;;;;;5033056;28;20404;-54
2022/01/19 01:32:47;;;;;;;7.03;4.57;;;3.00;99.90;;;;;;5014647;28;20096;-58
2022/01/19 01:35:13;;;;;;;7.40;4.40;;;3.10;99.90;;;;;;5040442;28;20444;-59
2022/01/19 01:37:39;;;;;;;9.40;4.85;;;3.10;99.90;;;;;;5043540;28;20084;-55
2022/01/19 01:40:07;;;;;;;7.10;4.03;;;3.10;99.90;;;;;;5035097;28;20048;-60
2022/01/19 01:42:33;;;;;;;7.38;4.15;;;3.20;99.90;;;;;;5038849;28;20522;-60
2022/01/19 01:45:01;;;;;;;10.60;4.47;;;3.20;99.90;;;;;;5038724;28;20052;-59
2022/01/19 01:47:27;;;;;;;6.35;4.15;;;3.20;99.90;;;;;;5030371;28;20045;-60
2022/01/19 01:55:10;;;;;;;6.07;4.68;;;3.30;99.90;;;;;;5024727;28;20056;-61
2022/01/19 01:57:36;;;;;;;8.98;5.20;;;3.30;99.90;;;;;;5020007;28;20036;-56
2022/01/19 02:00:06;;;;;;;10.15;5.15;;;3.30;99.90;;;;;;5021110;28;20026;-56
2022/01/19 02:02:32;;;;;;;5.78;4.55;;;3.30;99.90;;;;;;5021884;28;20475;-58
2022/01/19 02:04:57;;;;;;;7.32;4.53;;;3.40;99.90;;;;;;5031552;28;20049;-58
2022/01/19 02:09:52;;;;;;;6.97;4.53;;;3.40;99.90;;;;;;5031322;28;20507;-57
2022/01/19 02:25:56;;;;;;;7.85;5.28;;;3.50;99.90;;;;;;5032407;28;20037;-58
2022/01/19 02:41:50;;;;;;;8.55;6.75;;;3.50;99.90;;;;;;5028288;28;20545;-62
2022/01/19 02:49:54;;;;;;;6.85;5.60;;;3.60;99.90;;;;;;5028015;28;20025;-60
2022/01/19 02:52:22;;;;;;;6.63;5.25;;;3.60;99.90;;;;;;5021387;28;20025;-55
2022/01/19 02:54:48;;;;;;;6.18;4.97;;;3.60;99.90;;;;;;5033766;28;20018;-60
2022/01/19 02:57:15;;;;;;;6.75;5.15;;;3.70;99.90;;;;;;5040327;28;20408;-59
2022/01/19 03:10:21;;;;;;;5.68;4.47;;;3.80;99.90;;;;;;5039210;28;20040;-60
2022/01/19 03:12:47;;;;;;;7.35;4.78;;;3.80;99.90;;;;;;5012524;28;20030;-61
2022/01/19 03:15:13;;;;;;;5.65;4.50;;;3.80;99.90;;;;;;5028816;28;20030;-60
2022/01/19 03:17:39;;;;;;;7.47;4.85;;;3.80;99.90;;;;;;5025771;28;20083;-61
2022/01/19 03:20:07;;;;;;;6.90;4.97;;;3.80;99.90;;;;;;5031265;28;20636;-60
2022/01/19 03:22:39;;;;;;;6.57;4.80;;;3.80;99.90;;;;;;5029147;28;20037;-59
2022/01/19 03:25:11;;;;;;;4.85;4.30;;;3.80;99.90;;;;;;5028415;28;20067;-60
2022/01/19 03:27:37;;;;;;;6.68;4.30;;;3.80;99.90;;;;;;5029446;28;20040;-60
2022/01/19 03:30:04;;;;;;;4.65;3.80;;;3.80;99.90;;;;;;5035286;28;20033;-60
2022/01/19 03:32:30;;;;;;;5.93;3.65;;;3.90;99.90;;;;;;5035779;28;20086;-60
2022/01/19 03:34:56;;;;;;;6.53;3.97;;;3.90;99.90;;;;;;5010362;28;20041;-59
2022/01/19 03:37:21;;;;;;;4.78;3.58;;;3.90;99.90;;;;;;5023359;28;20044;-60
2022/01/19 03:39:47;;;;;;;5.00;3.58;;;3.90;99.90;;;;;;5026726;28;20108;-59
2022/01/19 03:42:12;;;;;;;5.00;3.65;;;4.00;99.90;;;;;;5016529;28;20104;-61
2022/01/19 03:44:39;;;;;;;4.15;3.55;;;4.00;99.90;;;;;;5027275;28;20026;-60
2022/01/19 03:47:05;;;;;;;5.65;3.58;;;4.00;99.90;;;;;;5025410;28;20017;-61
2022/01/19 03:49:33;;;;;;;4.07;3.42;;;4.00;99.90;;;;;;5029570;28;20036;-59
2022/01/19 03:52:03;;;;;;;4.82;3.22;;;4.00;99.90;;;;;;5031577;28;20018;-61
2022/01/19 03:54:31;;;;;;;4.45;3.50;;;4.00;99.90;;;;;;5028687;28;20032;-60
2022/01/19 03:56:57;;;;;;;5.18;3.45;;;4.00;99.90;;;;;;5035931;28;20040;-60
2022/01/19 03:59:23;;;;;;;4.15;3.60;;;4.00;99.90;;;;;;5030213;28;20029;-61
2022/01/19 04:01:52;;;;;;;4.72;3.10;;;4.00;99.90;;;;;;5027448;28;20041;-61
2022/01/19 04:09:34;;;;;;;3.28;2.95;;;4.00;99.90;;;;;;5026804;28;20112;-59
2022/01/19 04:12:00;;;;;;;11.45;3.20;;;4.00;99.90;;;;;;5025895;28;20083;-61
2022/01/19 04:14:26;;;;;;;5.90;2.88;;;4.00;99.90;;;;;;5029125;28;20491;-60
2022/01/19 04:16:54;;;;;;;4.30;2.90;;;4.00;99.90;;;;;;5032554;28;20911;-60
2022/01/19 04:19:27;;;;;;;3.65;3.05;;;4.00;99.90;;;;;;5035393;28;20061;-61
2022/01/19 04:21:56;;;;;;;4.63;3.08;;;4.00;99.90;;;;;;5028740;28;20033;-59
2022/01/19 04:24:22;;;;;;;5.53;3.08;;;4.00;99.90;;;;;;5027760;28;20053;-60
2022/01/19 04:29:32;;;;;;;;;;;4.00;99.90;;;;;;5034656;28;20548;-60
2022/01/19 04:31:58;;;;;;;4.07;2.75;;;4.00;99.90;;;;;;5025373;28;19909;-60
2022/01/19 04:34:23;;;;;;;5.00;3.20;;;4.00;99.90;;;;;;5013206;28;20117;-59
2022/01/19 04:44:54;;;;;;;6.28;3.47;;;4.00;99.90;;;;;;5026325;28;20040;-61
2022/01/19 05:06:32;;;;;;;4.00;2.85;;;3.90;99.90;;;;;;5026527;28;20044;-59
2022/01/19 05:09:10;;;;;;;4.95;3.00;;;4.00;99.90;;;;;;5027782;28;20025;-60
2022/01/19 05:14:19;;;;;;;4.88;3.40;;;4.00;99.90;;;;;;5034855;28;20040;-60
2022/01/19 05:16:45;;;;;;;13.60;4.60;;;4.00;99.90;;;;;;5033937;28;20033;-61
2022/01/19 05:19:11;;;;;;;6.38;3.70;;;4.00;99.90;;;;;;5024625;28;20494;-59
2022/01/19 05:21:36;;;;;;;5.95;3.75;;;4.00;99.90;;;;;;5026208;28;20057;-61
2022/01/19 05:24:04;;;;;;;6.53;4.05;;;3.90;99.90;;;;;;5033040;28;20060;-60
2022/01/19 05:26:31;;;;;;;5.32;3.60;;;3.90;99.90;;;;;;5026089;28;20030;-60
2022/01/19 05:28:57;;;;;;;4.80;3.28;;;3.90;99.90;;;;;;5024667;28;20044;-61
2022/01/19 05:31:23;;;;;;;4.88;3.42;;;4.00;99.90;;;;;;5028239;28;20388;-61
2022/01/19 05:33:48;;;;;;;4.20;3.17;;;4.00;99.90;;;;;;5009737;28;21484;-61
2022/01/19 05:36:14;;;;;;;6.43;3.50;;;4.00;99.90;;;;;;5027417;28;20441;-61
2022/01/19 05:38:39;;;;;;;6.53;3.35;;;3.90;99.90;;;;;;5027731;28;20068;-61
2022/01/19 05:41:05;;;;;;;4.85;3.45;;;4.00;99.90;;;;;;5026103;28;20045;-59
2022/01/19 05:43:31;;;;;;;5.45;2.55;;;4.00;99.90;;;;;;5027418;28;20109;-58
2022/01/19 05:45:56;;;;;;;5.80;3.40;;;4.00;99.90;;;;;;5025244;28;20056;-60
2022/01/19 05:48:22;;;;;;;4.65;3.08;;;4.00;99.90;;;;;;5035586;28;20543;-61
2022/01/19 05:50:47;;;;;;;3.60;2.67;;;4.00;99.90;;;;;;5033962;28;20034;-61
2022/01/19 05:53:13;;;;;;;3.53;2.58;;;4.00;99.90;;;;;;5030309;28;20856;-61
2022/01/19 05:55:38;;;;;;;7.10;2.65;;;4.00;99.90;;;;;;5026861;28;20036;-60
2022/01/19 05:58:04;;;;;;;4.20;2.22;;;4.00;99.90;;;;;;5030040;28;20718;-61
2022/01/19 06:00:30;;;;;;;7.50;4.38;;;4.00;99.90;;;;;;5030549;28;20106;-59
2022/01/19 06:02:56;;;;;;;7.07;3.80;;;3.90;99.90;;;;;;5028864;28;20399;-60
2022/01/19 06:05:21;;;;;;;14.82;7.47;;;3.90;99.90;;;;;;5030227;28;20017;-60
2022/01/19 06:07:48;;;;;;;7.07;4.68;;;3.90;99.90;;;;;;5035068;28;20108;-61
2022/01/19 06:12:59;;;;;;;7.10;4.00;;;3.90;99.90;;;;;;5031595;28;20080;-61
2022/01/19 06:15:25;;;;;;;6.78;3.60;;;3.90;99.90;;;;;;5031765;28;20050;-61
2022/01/19 06:17:51;;;;;;;4.72;4.13;;;3.90;99.90;;;;;;5031022;28;20038;-61
2022/01/19 06:20:16;;;;;;;7.20;4.28;;;3.90;99.90;;;;;;5031448;28;20057;-59
2022/01/19 06:22:42;;;;;;;6.22;4.22;;;3.90;99.90;;;;;;5031712;28;20029;-60
2022/01/19 06:25:08;;;;;;;6.28;4.25;;;3.90;99.90;;;;;;5029835;28;20056;-60
2022/01/19 06:27:33;;;;;;;4.60;3.42;;;3.90;99.90;;;;;;5030693;28;20060;-60
2022/01/19 06:29:59;;;;;;;4.88;3.60;;;3.80;99.90;;;;;;5028979;28;20412;-60
2022/01/19 06:32:24;;;;;;;6.43;3.92;;;3.90;99.90;;;;;;5034640;28;20029;-60
2022/01/19 06:34:50;;;;;;;6.70;4.80;;;3.90;99.90;;;;;;5017264;28;20072;-60
2022/01/19 06:37:16;;;;;;;6.72;4.60;;;3.90;99.90;;;;;;5034236;28;20040;-60
2022/01/19 06:39:42;;;;;;;10.80;5.70;;;3.90;99.90;;;;;;5028227;28;20483;-61
2022/01/19 06:42:07;;;;;;;6.43;4.68;;;3.90;99.90;;;;;;5030230;28;20151;-61
2022/01/19 06:44:33;;;;;;;5.53;4.63;;;3.90;99.90;;;;;;5033838;28;20037;-59
2022/01/19 06:46:59;;;;;;;7.38;5.65;;;3.90;99.90;;;;;;5025813;28;20070;-60
2022/01/19 06:49:25;;;;;;;32.38;14.82;;;3.80;99.90;;;;;;5027716;28;20072;-61
2022/01/19 06:51:50;;;;;;;26.20;12.68;;;3.80;99.90;;;;;;5022497;28;20064;-61
2022/01/19 06:54:16;;;;;;;19.23;8.85;;;3.80;99.90;;;;;;5029562;28;20160;-61
2022/01/19 06:56:41;;;;;;;21.20;10.07;;;3.80;99.90;;;;;;5020401;28;20487;-61
2022/01/19 06:59:07;;;;;;;26.35;12.25;;;3.80;99.90;;;;;;5035723;28;20025;-61
2022/01/19 07:01:33;;;;;;;27.08;12.32;;;3.80;99.90;;;;;;5029228;28;20057;-59
2022/01/19 07:04:03;;;;;;;35.38;15.23;;;3.80;99.90;;;;;;5033946;28;20026;-60
2022/01/19 07:06:29;;;;;;;22.30;10.85;;;3.70;99.90;;;;;;5031031;28;20025;-61
2022/01/19 07:08:55;;;;;;;21.42;10.20;;;3.70;99.90;;;;;;5031509;28;20505;-61
2022/01/19 07:11:20;;;;;;;29.60;14.80;;;3.70;99.90;;;;;;5030361;28;20078;-61
2022/01/19 07:13:46;;;;;;;16.38;8.30;;;3.70;99.90;;;;;;5035739;28;20029;-60
2022/01/19 07:16:11;;;;;;;13.60;8.20;;;3.70;99.90;;;;;;5029089;28;20029;-61
2022/01/19 07:18:37;;;;;;;10.52;7.32;;;3.70;99.90;;;;;;5028446;28;20036;-60
2022/01/19 07:21:03;;;;;;;11.88;6.88;;;3.70;99.90;;;;;;5030264;28;20112;-61
2022/01/19 07:23:29;;;;;;;39.28;19.50;;;3.70;99.90;;;;;;5028439;28;20414;-61
2022/01/19 07:25:55;;;;;;;13.30;7.80;;;3.70;99.90;;;;;;5030191;28;20157;-61
2022/01/19 07:28:20;;;;;;;12.15;8.60;;;3.70;99.90;;;;;;5030143;28;20112;-61
2022/01/19 07:30:46;;;;;;;19.63;10.75;;;3.70;99.90;;;;;;5029457;28;20030;-61
2022/01/19 07:33:12;;;;;;;10.48;7.57;;;3.70;99.90;;;;;;5029817;28;20029;-60
2022/01/19 07:35:38;;;;;;;15.77;8.70;;;3.70;99.90;;;;;;5004247;28;20050;-61
2022/01/19 07:38:04;;;;;;;11.45;8.02;;;3.70;99.90;;;;;;5026419;28;20040;-60
2022/01/19 07:40:29;;;;;;;18.08;10.48;;;3.80;99.90;;;;;;5029901;28;20034;-61
2022/01/19 07:42:55;;;;;;;17.08;11.45;;;3.80;99.90;;;;;;5027250;28;20022;-60
2022/01/19 07:45:20;;;;;;;15.40;10.23;;;3.80;99.90;;;;;;5028561;28;20140;-61
2022/01/19 07:47:46;;;;;;;42.17;20.85;;;3.80;99.90;;;;;;5025168;28;20545;-61
2022/01/19 07:50:12;;;;;;;24.10;13.68;;;3.80;99.90;;;;;;5008799;28;20026;-61
2022/01/19 07:52:38;;;;;;;47.47;19.42;;;3.80;99.90;;;;;;5029129;28;20056;-60
2022/01/19 07:55:04;;;;;;;29.20;14.65;;;3.80;99.90;;;;;;5035783;28;20420;-60
2022/01/19 07:57:29;;;;;;;35.03;17.58;;;3.90;99.90;;;;;;5027369;28;20033;-61
2022/01/19 07:59:55;;;;;;;23.75;12.55;;;3.80;99.90;;;;;;5025843;28;20028;-60
2022/01/19 08:02:20;;;;;;;60.03;27.83;;;3.90;99.90;;;;;;5026284;28;20560;-60
2022/01/19 08:04:46;;;;;;;35.25;17.67;;;3.90;99.90;;;;;;5027855;28;20479;-61
2022/01/19 08:07:12;;;;;;;38.20;19.83;;;3.90;99.90;;;;;;5027849;28;20056;-59
2022/01/19 08:09:37;;;;;;;33.85;17.42;;;3.90;99.90;;;;;;5033997;28;20072;-60
2022/01/19 08:12:04;;;;;;;33.53;18.40;;;3.90;99.90;;;;;;5024538;28;20510;-61
2022/01/19 08:14:30;;;;;;;22.98;13.82;;;3.90;99.90;;;;;;5027263;28;20548;-60
2022/01/19 08:16:57;;;;;;;27.77;15.30;;;3.90;99.90;;;;;;5032060;28;20025;-60
2022/01/19 08:19:23;;;;;;;22.95;12.23;;;3.90;99.90;;;;;;5045957;28;20025;-60
2022/01/19 08:21:49;;;;;;;34.28;18.55;;;3.90;99.90;;;;;;5030429;28;20048;-61
2022/01/19 08:24:15;;;;;;;31.90;16.30;;;3.90;99.90;;;;;;5037078;28;20018;-60
2022/01/19 08:26:41;;;;;;;26.60;14.55;;;3.90;99.90;;;;;;5026797;28;20144;-61
2022/01/19 08:29:09;;;;;;;45.15;20.17;;;4.00;99.90;;;;;;5029667;28;20025;-60
2022/01/19 08:31:34;;;;;;;21.90;12.50;;;4.00;99.90;;;;;;5029211;28;20070;-57
2022/01/19 08:34:00;;;;;;;13.95;9.18;;;4.00;99.90;;;;;;5010557;28;20104;-62
2022/01/19 08:36:27;;;;;;;15.90;8.82;;;4.00;99.90;;;;;;5025025;28;20404;-61
2022/01/19 08:38:54;;;;;;;16.95;9.00;;;4.00;99.90;;;;;;5027459;28;20110;-60
2022/01/19 08:41:19;;;;;;;109.00;42.10;;;4.00;99.90;;;;;;5031036;28;20026;-60
2022/01/19 08:43:45;;;;;;;36.28;20.48;;;4.00;99.90;;;;;;5026894;28;20051;-61
2022/01/19 08:46:11;;;;;;;24.40;10.98;;;4.00;99.90;;;;;;5021499;28;20135;-60
2022/01/19 08:48:36;;;;;;;12.43;8.50;;;4.00;99.90;;;;;;5033743;28;20040;-60
2022/01/19 08:51:04;;;;;;;18.35;11.65;;;4.00;99.90;;;;;;5026775;28;20449;-61
2022/01/19 08:53:30;;;;;;;16.38;10.30;;;4.10;99.90;;;;;;5040715;28;20028;-60
2022/01/19 08:55:56;;;;;;;14.00;9.30;;;4.10;99.90;;;;;;5029980;28;20036;-61
2022/01/19 08:58:21;;;;;;;28.02;14.82;;;4.10;99.90;;;;;;5026364;28;20026;-60
2022/01/19 09:00:47;;;;;;;19.27;11.88;;;4.10;99.90;;;;;;5028575;28;20376;-61
2022/01/19 09:03:15;;;;;;;18.60;13.02;;;4.10;99.90;;;;;;5027371;28;20029;-61
2022/01/19 09:05:41;;;;;;;17.95;12.32;;;4.10;99.90;;;;;;5029178;28;20030;-61
2022/01/19 09:08:07;;;;;;;22.73;13.65;;;4.10;99.90;;;;;;5039363;28;20036;-61
2022/01/19 09:10:32;;;;;;;31.20;16.08;;;4.20;99.90;;;;;;5027260;28;20095;-60
2022/01/19 09:12:58;;;;;;;17.50;10.20;;;4.20;99.90;;;;;;5028908;28;20053;-60
2022/01/19 09:15:24;;;;;;;34.45;16.95;;;4.20;99.90;;;;;;5027140;28;20088;-60
2022/01/19 09:17:50;;;;;;;35.95;16.08;;;4.20;99.90;;;;;;5032958;28;20100;-60
2022/01/19 09:20:16;;;;;;;26.42;15.00;;;4.20;99.90;;;;;;5034771;28;20027;-60
2022/01/19 09:22:43;;;;;;;21.05;13.48;;;4.30;99.90;;;;;;5031771;28;20025;-61
2022/01/19 09:25:11;;;;;;;15.40;8.43;;;4.30;99.90;;;;;;5032717;28;20075;-61
2022/01/19 09:27:40;;;;;;;18.02;11.27;;;4.30;99.90;;;;;;5032211;28;20025;-60
2022/01/19 09:30:08;;;;;;;18.33;12.05;;;4.40;99.90;;;;;;5030907;28;20038;-62
2022/01/19 09:32:34;;;;;;;12.07;8.35;;;4.40;99.90;;;;;;5031900;28;20037;-61
2022/01/19 09:35:06;;;;;;;17.58;9.98;;;4.40;99.90;;;;;;5007692;28;20475;-61
2022/01/19 09:37:33;;;;;;;14.15;8.57;;;4.30;99.90;;;;;;5035394;28;20460;-61
2022/01/19 09:39:59;;;;;;;12.43;7.95;;;4.40;99.90;;;;;;5032314;28;20022;-61
2022/01/19 09:42:24;;;;;;;12.75;7.35;;;4.40;99.90;;;;;;5036068;28;20029;-62
2022/01/19 09:44:52;;;;;;;15.68;9.13;;;4.40;99.90;;;;;;5036902;28;20022;-62
2022/01/19 09:47:18;;;;;;;15.95;11.38;;;4.40;99.90;;;;;;5033919;28;20100;-59
2022/01/19 09:49:44;;;;;;;19.17;10.85;;;4.40;99.90;;;;;;5031965;28;20053;-59
2022/01/19 09:52:12;;;;;;;15.68;10.10;;;4.40;99.90;;;;;;5038898;28;20029;-60
2022/01/19 09:54:38;;;;;;;14.57;9.90;;;4.40;99.90;;;;;;5032249;28;20398;-60
2022/01/19 09:57:07;;;;;;;13.32;10.23;;;4.40;99.90;;;;;;5038166;28;20036;-60
2022/01/19 09:59:33;;;;;;;20.70;12.27;;;4.40;99.90;;;;;;5033195;28;20056;-59
2022/01/19 10:02:09;;;;;;;22.02;12.73;;;4.40;99.90;;;;;;5032254;28;20442;-60
2022/01/19 10:04:38;;;;;;;18.45;11.32;;;4.40;99.90;;;;;;5026495;28;20038;-60
2022/01/19 10:07:15;;;;;;;16.50;9.75;;;4.40;99.90;;;;;;5029323;28;20061;-60
2022/01/19 10:10:05;;;;;;;19.13;11.15;;;4.40;99.90;;;;;;5031409;28;20118;-60
2022/01/19 10:18:22;;;;;;;14.95;7.40;;;4.50;99.90;;;;;;5026261;28;20044;-60
2022/01/19 10:21:04;;;;;;;20.88;11.15;;;4.50;99.90;;;;;;5027317;28;20095;-60
2022/01/19 10:23:38;;;;;;;17.83;11.55;;;4.50;99.90;;;;;;5028679;28;20029;-60
2022/01/19 10:26:09;;;;;;;13.13;8.63;;;4.50;99.90;;;;;;5028531;28;20021;-61
2022/01/19 10:29:00;;;;;;;25.23;14.02;;;4.50;99.90;;;;;;5035668;28;20111;-61
2022/01/19 10:31:27;;;;;;;16.65;10.65;;;4.40;99.90;;;;;;5035720;28;20033;-60
2022/01/19 10:34:15;;;;;;;11.63;7.82;;;4.40;99.90;;;;;;5037111;28;20037;-60
2022/01/19 10:36:46;;;;;;;8.88;6.75;;;4.40;99.90;;;;;;5015488;28;20069;-60
2022/01/19 10:39:12;;;;;;;12.70;7.88;;;4.40;99.90;;;;;;5033097;28;20032;-60
2022/01/19 10:42:03;;;;;;;22.95;11.05;;;4.40;99.90;;;;;;5032939;28;20037;-59
2022/01/19 10:44:35;;;;;;;17.60;11.25;;;4.40;99.90;;;;;;5030483;28;20108;-60
2022/01/19 10:47:04;;;;;;;10.43;7.40;;;4.40;99.90;;;;;;5026058;28;20037;-60
2022/01/19 10:49:55;;;;;;;14.60;8.63;;;4.40;99.90;;;;;;5032901;28;20034;-59
2022/01/19 10:52:28;;;;;;;12.77;6.95;;;4.40;99.90;;;;;;5022493;28;20049;-59
2022/01/19 10:54:54;;;;;;;10.48;7.55;;;4.40;99.90;;;;;;5030354;28;20025;-59
2022/01/19 10:57:19;;;;;;;12.27;7.80;;;4.40;99.90;;;;;;5028321;28;20360;-59
2022/01/19 10:59:45;;;;;;;11.05;7.82;;;4.30;99.90;;;;;;5029426;28;20020;-59
2022/01/19 11:02:12;;;;;;;11.88;8.90;;;4.30;99.90;;;;;;5033184;28;20020;-59
2022/01/19 11:04:39;;;;;;;18.95;8.63;;;4.30;99.90;;;;;;5030676;28;20048;-60
2022/01/19 11:07:15;;;;;;;11.90;8.13;;;4.30;99.90;;;;;;5019703;28;20156;-61
2022/01/19 11:09:46;;;;;;;13.05;9.45;;;4.30;99.90;;;;;;5027075;28;20117;-60
2022/01/19 11:12:19;;;;;;;23.50;13.52;;;4.30;99.90;;;;;;5029701;28;20022;-59
2022/01/19 11:14:45;;;;;;;19.92;12.73;;;4.20;99.90;;;;;;5024687;28;20026;-61
2022/01/19 11:17:12;;;;;;;32.65;18.27;;;4.20;99.90;;;;;;5029357;28;20491;-60
2022/01/19 11:19:45;;;;;;;21.00;13.50;;;4.20;99.90;;;;;;5028376;28;20026;-60
2022/01/19 11:22:26;;;;;;;26.15;14.48;;;4.20;99.90;;;;;;5032565;28;20068;-61
2022/01/19 11:25:19;;;;;;;29.90;14.98;;;4.20;99.90;;;;;;5029484;28;20037;-60
2022/01/19 11:27:49;;;;;;;34.10;18.83;;;4.20;99.90;;;;;;5030714;28;20029;-61
2022/01/19 11:30:29;;;;;;;27.60;16.83;;;4.20;99.90;;;;;;5029891;28;20037;-59
2022/01/19 11:33:15;;;;;;;15.45;11.70;;;4.20;99.90;;;;;;5022268;28;20025;-60
2022/01/19 11:35:44;;;;;;;15.70;12.35;;;4.30;99.90;;;;;;5012575;28;20055;-61
2022/01/19 11:38:32;;;;;;;17.92;11.85;;;4.30;99.90;;;;;;5029049;28;20088;-60
2022/01/19 11:41:08;;;;;;;17.67;12.63;;;4.20;99.90;;;;;;5030828;28;20499;-60
2022/01/19 11:43:47;;;;;;;19.90;13.68;;;4.20;99.90;;;;;;5027686;28;20044;-61
2022/01/19 11:46:34;;;;;;;19.77;14.10;;;4.30;99.90;;;;;;5028117;28;20033;-61
2022/01/19 11:49:02;;;;;;;22.02;13.82;;;4.30;99.90;;;;;;5029976;28;20521;-61
2022/01/19 11:51:46;;;;;;;18.50;14.10;;;4.30;99.90;;;;;;5029156;28;20462;-60
2022/01/19 11:54:29;;;;;;;30.95;18.05;;;4.40;99.90;;;;;;5040996;28;20828;-60
2022/01/19 11:57:02;;;;;;;30.83;18.58;;;4.50;99.90;;;;;;5024598;28;20036;-60
2022/01/19 11:59:46;;;;;;;36.55;19.70;;;4.50;99.90;;;;;;5025235;28;20032;-60
2022/01/19 12:02:21;;;;;;;32.95;19.00;;;4.50;99.90;;;;;;5026222;28;20550;-61
2022/01/19 12:04:59;;;;;;;27.45;15.75;;;4.50;99.90;;;;;;5026508;28;20049;-60
2022/01/19 12:07:48;;;;;;;27.60;17.52;;;4.60;99.90;;;;;;5029319;28;20037;-61
2022/01/19 12:10:37;;;;;;;34.00;19.08;;;4.70;99.90;;;;;;5025825;28;20499;-60
2022/01/19 12:19:07;;;;;;;25.45;15.27;;;4.60;99.90;;;;;;5028408;28;20090;-61
2022/01/19 12:22:02;;;;;;;23.30;13.82;;;4.70;99.90;;;;;;5029873;28;20025;-59
2022/01/19 12:24:47;;;;;;;22.45;13.75;;;4.70;99.90;;;;;;5026501;28;20049;-60
2022/01/19 12:27:13;;;;;;;27.55;15.20;;;4.60;99.90;;;;;;5027844;28;20049;-60
2022/01/19 12:29:45;;;;;;;22.45;13.45;;;4.60;99.90;;;;;;5028527;28;20063;-60
2022/01/19 12:32:16;;;;;;;35.15;17.48;;;4.50;99.90;;;;;;5029259;28;20052;-60
2022/01/19 12:34:44;;;;;;;36.78;16.60;;;4.40;99.90;;;;;;5008572;28;20109;-60
2022/01/19 12:37:33;;;;;;;36.50;18.10;;;4.40;99.90;;;;;;5029041;28;20479;-60
2022/01/19 12:40:17;;;;;;;31.13;16.33;;;4.40;99.90;;;;;;5029343;28;20298;-60
2022/01/19 12:42:54;;;;;;;26.20;15.40;;;4.30;99.90;;;;;;5028980;28;20402;-60
2022/01/19 12:45:31;;;;;;;35.75;17.58;;;4.30;99.90;;;;;;5029423;28;20423;-60
2022/01/19 12:48:05;;;;;;;21.38;13.63;;;4.30;99.90;;;;;;5027209;28;20030;-61
2022/01/19 12:50:40;;;;;;;39.88;18.60;;;4.40;99.90;;;;;;5029173;28;20083;-61
2022/01/19 12:53:19;;;;;;;26.80;15.25;;;4.40;99.90;;;;;;5028800;28;20029;-60
2022/01/19 12:55:51;;;;;;;27.05;15.02;;;4.40;99.90;;;;;;5026910;28;20051;-59
2022/01/19 12:58:39;;;;;;;21.27;13.20;;;4.40;99.90;;;;;;5028783;28;20176;-60
2022/01/19 13:01:09;;;;;;;26.30;14.32;;;4.40;99.90;;;;;;5027219;28;20029;-61
2022/01/19 13:03:41;;;;;;;27.15;12.07;;;4.30;99.90;;;;;;5026681;28;20076;-59
2022/01/19 13:06:13;;;;;;;15.85;10.68;;;4.30;99.90;;;;;;5022967;28;20021;-59
2022/01/19 13:08:46;;;;;;;21.92;13.10;;;4.30;99.90;;;;;;5024659;28;20032;-61
2022/01/19 13:11:30;;;;;;;23.13;13.38;;;4.30;99.90;;;;;;5028713;28;20042;-61
2022/01/19 13:17:17;;;;;;;24.58;12.80;;;4.20;99.90;;;;;;5014980;28;20060;-61
2022/01/19 13:19:43;;;;;;;19.70;13.32;;;4.20;99.90;;;;;;5030606;28;20105;-60
2022/01/19 13:22:08;;;;;;;19.85;12.18;;;4.20;99.90;;;;;;5024983;28;20030;-60
2022/01/19 13:24:36;;;;;;;20.75;13.07;;;4.20;99.90;;;;;;5029304;28;20034;-60
2022/01/19 13:27:07;;;;;;;14.38;9.35;;;4.10;99.90;;;;;;5025632;28;20028;-60
2022/01/19 13:29:47;;;;;;;17.10;11.45;;;4.10;99.90;;;;;;5029543;28;20076;-60
2022/01/19 13:32:21;;;;;;;19.05;11.35;;;4.10;99.90;;;;;;5028791;28;20768;-60
2022/01/19 13:35:02;;;;;;;19.00;12.35;;;4.00;99.90;;;;;;5011138;28;20045;-60
2022/01/19 13:37:38;;;;;;;20.08;11.85;;;4.10;99.90;;;;;;5027531;28;20073;-60
2022/01/19 13:40:14;;;;;;;40.03;18.30;;;4.10;99.90;;;;;;5029630;28;20030;-60
2022/01/19 13:42:47;;;;;;;22.92;14.25;;;4.00;99.90;;;;;;5019989;28;20069;-60
2022/01/19 13:50:47;;;;;;;23.92;14.07;;;4.00;99.90;;;;;;5023964;28;20480;-60
2022/01/19 13:53:14;;;;;;;21.90;14.20;;;4.10;99.90;;;;;;5027448;28;20037;-59
2022/01/19 13:55:41;;;;;;;23.40;15.52;;;4.00;99.90;;;;;;5028831;28;20112;-59
2022/01/19 13:58:15;;;;;;;27.60;17.83;;;4.00;99.90;;;;;;5028717;28;20121;-56
2022/01/19 14:00:51;;;;;;;22.83;14.18;;;4.00;99.90;;;;;;5029433;28;20065;-60
2022/01/19 14:03:19;;;;;;;30.27;13.98;;;4.00;99.90;;;;;;5028493;28;20112;-61
2022/01/19 14:05:47;;;;;;;21.10;13.55;;;3.90;99.90;;;;;;5030030;28;20087;-61
2022/01/19 14:08:14;;;;;;;24.75;14.07;;;4.00;99.90;;;;;;5031271;28;20320;-60
2022/01/19 14:10:47;;;;;;;24.50;16.00;;;4.00;99.90;;;;;;5032910;28;20082;-60
2022/01/19 14:13:33;;;;;;;23.73;14.90;;;3.90;99.90;;;;;;5026374;28;20037;-60
2022/01/19 14:16:21;;;;;;;26.90;15.60;;;3.90;99.90;;;;;;5032167;28;20351;-61
2022/01/19 14:19:11;;;;;;;24.77;14.52;;;4.00;99.90;;;;;;5031789;28;20018;-60
2022/01/19 14:22:05;;;;;;;24.95;14.70;;;4.00;99.90;;;;;;5030201;28;20036;-58
2022/01/19 14:24:49;;;;;;;24.50;15.27;;;4.00;99.90;;;;;;5032345;28;20167;-60
2022/01/19 14:27:17;;;;;;;21.70;14.90;;;4.00;99.90;;;;;;5031772;28;20139;-59
2022/01/19 14:30:14;;;;;;;24.70;14.38;;;4.00;99.90;;;;;;5031664;28;20741;-60
2022/01/19 14:32:50;;;;;;;22.60;14.40;;;4.00;99.90;;;;;;5009457;28;20487;-58
2022/01/19 14:35:26;;;;;;;24.33;13.50;;;4.10;99.90;;;;;;5014879;28;20103;-58
2022/01/19 14:38:03;;;;;;;22.10;14.45;;;4.10;99.90;;;;;;5022821;28;20061;-60
2022/01/19 14:40:30;;;;;;;23.33;14.27;;;4.00;99.90;;;;;;5026744;28;20025;-60
2022/01/19 14:42:55;;;;;;;24.30;14.80;;;4.00;99.90;;;;;;5031215;28;20030;-60
2022/01/19 14:45:27;;;;;;;28.42;15.70;;;3.90;99.90;;;;;;5032008;28;20024;-60
2022/01/19 14:47:54;;;;;;;35.65;19.40;;;3.90;99.90;;;;;;5031241;28;20037;-58
2022/01/19 14:50:33;;;;;;;35.85;22.55;;;3.90;99.90;;;;;;5031363;28;20108;-60
2022/01/19 14:52:59;;;;;;;34.35;18.85;;;3.90;99.90;;;;;;5030844;28;20541;-59
2022/01/19 14:55:33;;;;;;;63.78;32.90;;;3.90;99.90;;;;;;5032361;28;20034;-60